createdAt,value
2018-06-01T00:00:37.364Z,18.00
2018-06-01T00:01:36.947Z,18.00
2018-06-01T00:02:36.925Z,18.00
2018-06-01T00:03:37.793Z,18.00
2018-06-01T00:04:38.237Z,17.98
2018-06-01T00:05:36.671Z,17.98
2018-06-01T00:06:37.892Z,17.92
2018-06-01T00:07:37.489Z,17.92
2018-06-01T00:08:58.671Z,17.89
2018-06-01T00:09:59.242Z,17.87
2018-06-01T00:10:59.155Z,17.85
2018-06-01T00:11:58.872Z,17.85
2018-06-01T00:12:58.806Z,17.82
2018-06-01T00:13:58.675Z,17.83
2018-06-01T00:14:59.594Z,17.82
2018-06-01T00:15:58.301Z,17.85
2018-06-01T00:16:59.240Z,17.85
2018-06-01T00:17:58.871Z,17.86
2018-06-01T00:18:58.512Z,17.86
2018-06-01T00:19:59.070Z,17.85
2018-06-01T00:21:42.235Z,17.83
2018-06-01T00:22:42.934Z,17.85
2018-06-01T00:23:42.799Z,17.83
2018-06-01T00:25:04.467Z,17.83
2018-06-01T00:26:05.219Z,17.78
2018-06-01T00:27:04.819Z,17.76
2018-06-01T00:28:05.131Z,17.72
2018-06-01T00:29:04.652Z,17.72
2018-06-01T00:30:04.320Z,17.72
2018-06-01T00:31:27.815Z,17.74
2018-06-01T00:32:27.767Z,17.74
2018-06-01T00:33:28.373Z,17.72
2018-06-01T00:34:28.397Z,17.71
2018-06-01T00:35:28.074Z,17.70
2018-06-01T00:36:27.511Z,17.70
2018-06-01T00:37:28.952Z,17.67
2018-06-01T00:38:27.590Z,17.65
2018-06-01T00:39:28.172Z,17.65
2018-06-01T00:40:27.969Z,17.67
2018-06-01T00:41:27.421Z,17.68
2018-06-01T00:42:28.086Z,17.71
2018-06-01T00:43:27.808Z,17.74
2018-06-01T00:44:27.505Z,17.72
2018-06-01T00:45:28.162Z,17.70
2018-06-01T00:46:27.611Z,17.67
2018-06-01T00:47:28.173Z,17.63
2018-06-01T00:48:27.965Z,17.59
2018-06-01T00:49:27.905Z,17.54
2018-06-01T00:50:27.431Z,17.52
2018-06-01T00:51:28.326Z,17.51
2018-06-01T00:52:28.211Z,17.49
2018-06-01T00:53:27.892Z,17.52
2018-06-01T00:54:27.918Z,17.51
2018-06-01T00:55:27.871Z,17.49
2018-06-01T00:56:49.299Z,17.49
2018-06-01T00:57:50.164Z,17.52
2018-06-01T00:59:11.749Z,17.52
2018-06-01T01:00:12.578Z,17.52
2018-06-01T01:01:12.381Z,17.54
2018-06-01T01:02:12.151Z,17.51
2018-06-01T01:03:12.572Z,17.49
2018-06-01T01:04:13.763Z,17.48
2018-06-01T01:05:13.715Z,17.46
2018-06-01T01:06:12.215Z,17.48
2018-06-01T01:07:11.944Z,17.48
2018-06-01T01:08:12.258Z,17.49
2018-06-01T01:09:11.999Z,17.52
2018-06-01T01:10:11.991Z,17.52
2018-06-01T01:11:12.462Z,17.54
2018-06-01T01:12:11.884Z,17.54
2018-06-01T01:13:11.814Z,17.54
2018-06-01T01:14:11.533Z,17.54
2018-06-01T01:15:13.575Z,17.52
2018-06-01T01:16:12.021Z,17.51
2018-06-01T01:17:11.983Z,17.49
2018-06-01T01:18:33.562Z,17.49
2018-06-01T01:19:56.116Z,17.51
2018-06-01T01:20:57.022Z,17.51
2018-06-01T01:21:56.934Z,17.51
2018-06-01T01:22:56.675Z,17.51
2018-06-01T01:23:56.528Z,17.51
2018-06-01T01:24:55.966Z,17.51
2018-06-01T01:25:56.761Z,17.49
2018-06-01T01:26:56.614Z,17.51
2018-06-01T01:27:56.499Z,17.51
2018-06-01T01:28:55.981Z,17.51
2018-06-01T01:29:56.683Z,17.49
2018-06-01T01:30:56.338Z,17.48
2018-06-01T01:31:56.012Z,17.45
2018-06-01T01:32:57.127Z,17.44
2018-06-01T01:33:57.188Z,17.41
2018-06-01T01:34:56.808Z,17.36
2018-06-01T01:35:56.297Z,17.33
2018-06-01T01:36:56.678Z,17.27
2018-06-01T01:37:56.036Z,17.23
2018-06-01T01:38:56.792Z,17.23
2018-06-01T01:39:56.671Z,17.23
2018-06-01T01:40:56.218Z,17.26
2018-06-01T01:41:56.233Z,17.27
2018-06-01T01:42:56.052Z,17.27
2018-06-01T01:43:56.690Z,17.27
2018-06-01T01:44:56.469Z,17.24
2018-06-01T01:45:56.454Z,17.26
2018-06-01T01:46:55.882Z,17.27
2018-06-01T01:47:56.879Z,17.27
2018-06-01T01:48:56.479Z,17.30
2018-06-01T01:49:56.051Z,17.27
2018-06-01T01:50:56.793Z,17.27
2018-06-01T01:51:56.833Z,17.26
2018-06-01T01:52:56.773Z,17.26
2018-06-01T01:53:56.745Z,17.26
2018-06-01T01:54:56.475Z,17.26
2018-06-01T01:55:56.456Z,17.27
2018-06-01T01:56:56.937Z,17.26
2018-06-01T01:57:56.410Z,17.27
2018-06-01T01:58:56.065Z,17.27
2018-06-01T01:59:56.782Z,17.33
2018-06-01T02:00:56.451Z,17.33
2018-06-01T02:01:56.458Z,17.34
2018-06-01T02:02:56.221Z,17.38
2018-06-01T02:03:57.018Z,17.41
2018-06-01T02:04:56.819Z,17.44
2018-06-01T02:06:18.256Z,17.45
2018-06-01T02:07:19.228Z,17.44
2018-06-01T02:08:19.189Z,17.44
2018-06-01T02:09:18.807Z,17.46
2018-06-01T02:10:18.557Z,17.46
2018-06-01T02:11:18.856Z,17.46
2018-06-01T02:12:18.881Z,17.49
2018-06-01T02:13:18.335Z,17.51
2018-06-01T02:15:03.284Z,17.59
2018-06-01T02:16:03.332Z,17.60
2018-06-01T02:17:02.896Z,17.60
2018-06-01T02:18:03.653Z,17.64
2018-06-01T02:19:03.230Z,17.65
2018-06-01T02:20:04.055Z,17.65
2018-06-01T02:21:25.429Z,17.65
2018-06-01T02:22:26.277Z,17.67
2018-06-01T02:23:26.125Z,17.70
2018-06-01T02:24:25.889Z,17.71
2018-06-01T02:25:25.656Z,17.74
2018-06-01T02:26:25.356Z,17.76
2018-06-01T02:27:26.288Z,17.78
2018-06-01T02:28:26.231Z,17.78
2018-06-01T02:29:26.027Z,17.79
2018-06-01T02:30:25.826Z,17.82
2018-06-01T02:31:25.561Z,17.85
2018-06-01T02:32:25.342Z,17.85
2018-06-01T03:53:38.100Z,17.65
2018-06-01T03:54:38.914Z,17.67
2018-06-01T03:55:38.665Z,17.68
2018-06-01T03:57:01.529Z,17.68
2018-06-01T03:58:01.675Z,17.70
2018-06-01T03:59:01.495Z,17.71
2018-06-01T04:00:01.593Z,17.72
2018-06-01T04:01:01.622Z,17.74
2018-06-01T04:02:01.492Z,17.74
2018-06-01T04:03:01.694Z,17.76
2018-06-01T04:04:01.287Z,17.76
2018-06-01T04:05:01.488Z,17.80
2018-06-01T04:06:01.331Z,17.79
2018-06-01T04:07:02.417Z,17.82
2018-06-01T04:08:01.571Z,17.83
2018-06-01T04:09:01.465Z,17.82
2018-06-01T04:10:14.757Z,17.85
2018-06-01T04:11:02.065Z,17.89
2018-06-01T04:12:01.663Z,17.92
2018-06-01T04:13:01.303Z,17.98
2018-06-01T04:14:02.082Z,18.01
2018-06-01T04:15:02.375Z,18.03
2018-06-01T04:16:01.259Z,18.03
2018-06-01T04:17:02.350Z,18.00
2018-06-01T04:18:02.211Z,18.01
2018-06-01T04:19:02.253Z,18.00
2018-06-01T04:20:02.200Z,18.00
2018-06-01T04:21:02.098Z,18.04
2018-06-01T04:22:02.207Z,18.10
2018-06-01T04:23:02.211Z,18.15
2018-06-01T04:24:02.362Z,18.20
2018-06-01T04:25:02.206Z,18.26
2018-06-01T04:26:02.204Z,18.28
2018-06-01T04:27:02.467Z,18.31
2018-06-01T04:28:01.374Z,18.35
2018-06-01T04:29:23.215Z,18.41
2018-06-01T04:30:23.167Z,18.45
2018-06-01T04:31:24.179Z,18.53
2018-06-01T04:32:22.957Z,18.56
2018-06-01T04:33:23.737Z,18.60
2018-06-01T04:34:23.694Z,18.66
2018-06-01T04:35:23.594Z,18.70
2018-06-01T04:36:23.667Z,18.71
2018-06-01T04:37:23.713Z,18.75
2018-06-01T04:38:23.781Z,18.77
2018-06-01T04:39:23.997Z,18.80
2018-06-01T04:40:24.217Z,18.84
2018-06-01T04:41:23.265Z,18.89
2018-06-01T04:42:24.459Z,18.90
2018-06-01T04:43:23.445Z,18.95
2018-06-01T04:44:23.549Z,18.99
2018-06-01T04:45:23.556Z,19.02
2018-06-01T04:46:23.742Z,19.02
2018-06-01T04:47:23.916Z,19.04
2018-06-01T04:48:23.891Z,19.09
2018-06-01T04:49:23.891Z,19.14
2018-06-01T04:50:24.769Z,19.14
2018-06-01T04:51:24.015Z,19.18
2018-06-01T04:52:24.189Z,19.27
2018-06-01T04:53:24.199Z,19.30
2018-06-01T04:54:23.729Z,19.33
2018-06-01T04:55:24.485Z,19.37
2018-06-01T04:56:23.708Z,19.36
2018-06-01T04:57:28.198Z,19.39
2018-06-01T04:58:23.464Z,19.40
2018-06-01T04:59:24.232Z,19.39
2018-06-01T05:00:23.417Z,19.41
2018-06-01T05:01:24.527Z,19.45
2018-06-01T05:02:24.126Z,19.49
2018-06-01T05:03:26.658Z,19.52
2018-06-01T05:04:26.016Z,19.55
2018-06-01T05:05:23.486Z,19.55
2018-06-01T05:06:23.456Z,19.62
2018-06-01T05:07:23.460Z,19.63
2018-06-01T05:08:24.395Z,19.67
2018-06-01T05:09:23.734Z,19.73
2018-06-01T05:10:25.530Z,19.81
2018-06-01T05:11:57.045Z,19.89
2018-06-01T05:12:58.352Z,19.89
2018-06-01T05:13:58.005Z,19.95
2018-06-01T05:14:58.129Z,20.00
2018-06-01T05:15:57.421Z,20.04
2018-06-01T05:16:57.304Z,20.11
2018-06-01T05:17:57.881Z,20.24
2018-06-01T05:18:57.885Z,20.31
2018-06-01T05:19:57.748Z,20.32
2018-06-01T05:20:57.525Z,20.39
2018-06-01T05:21:57.541Z,20.48
2018-06-01T05:22:57.602Z,20.51
2018-06-01T05:23:57.571Z,20.59
2018-06-01T05:24:57.447Z,20.70
2018-06-01T05:25:57.781Z,20.82
2018-06-01T05:26:57.693Z,20.95
2018-06-01T05:27:58.638Z,21.02
2018-06-01T05:28:59.208Z,21.03
2018-06-01T05:30:20.415Z,20.97
2018-06-01T05:31:25.337Z,21.02
2018-06-01T05:32:20.410Z,21.02
2018-06-01T05:33:20.724Z,21.05
2018-06-01T05:34:21.032Z,21.03
2018-06-01T05:35:20.770Z,20.95
2018-06-01T05:36:43.023Z,20.85
2018-06-01T05:37:43.124Z,20.81
2018-06-01T05:38:42.923Z,20.82
2018-06-01T05:39:42.643Z,20.84
2018-06-01T05:40:42.566Z,20.78
2018-06-01T05:41:43.278Z,20.74
2018-06-01T05:43:26.975Z,20.67
2018-06-01T05:44:27.910Z,20.67
2018-06-01T05:45:27.102Z,20.65
2018-06-01T05:46:26.946Z,20.63
2018-06-01T05:47:26.863Z,20.66
2018-06-01T05:48:29.004Z,20.72
2018-06-01T05:49:27.901Z,20.81
2018-06-01T05:50:27.236Z,20.92
2018-06-01T05:51:27.314Z,21.11
2018-06-01T05:52:26.397Z,21.30
2018-06-01T05:53:26.736Z,21.45
2018-06-01T05:54:49.150Z,21.73
2018-06-01T05:56:02.220Z,21.87
2018-06-01T05:57:25.946Z,22.13
2018-06-01T05:58:26.330Z,22.30
2018-06-01T05:59:26.567Z,22.50
2018-06-01T06:00:26.757Z,22.63
2018-06-01T06:01:26.438Z,22.83
2018-06-01T06:02:26.676Z,23.03
2018-06-01T06:03:26.740Z,23.21
2018-06-01T06:04:25.976Z,23.23
2018-06-01T06:05:25.807Z,23.34
2018-06-01T06:06:25.777Z,23.54
2018-06-01T06:07:26.667Z,23.68
2018-06-01T06:08:26.711Z,23.81
2018-06-01T06:09:25.714Z,23.88
2018-06-01T06:10:26.406Z,23.99
2018-06-01T06:11:26.058Z,24.05
2018-06-01T06:12:26.152Z,24.13
2018-06-01T06:13:26.230Z,24.23
2018-06-01T06:14:28.687Z,24.39
2018-06-01T06:15:26.608Z,24.45
2018-06-01T06:16:47.812Z,24.48
2018-06-01T06:17:48.504Z,24.48
2018-06-01T06:18:48.339Z,24.53
2018-06-01T06:19:48.330Z,24.61
2018-06-01T06:20:48.930Z,24.73
2018-06-01T06:21:47.737Z,24.70
2018-06-01T06:22:48.774Z,24.69
2018-06-01T06:23:48.563Z,24.66
2018-06-01T06:24:49.225Z,24.74
2018-06-01T06:26:31.379Z,24.85
2018-06-01T06:27:31.276Z,24.86
2018-06-01T06:28:32.298Z,24.91
2018-06-01T06:29:53.032Z,24.96
2018-06-01T06:30:55.328Z,25.01
2018-06-01T06:31:53.504Z,25.10
2018-06-01T06:32:53.175Z,25.23
2018-06-01T06:33:53.854Z,25.35
2018-06-01T06:35:18.620Z,25.54
2018-06-01T06:36:40.304Z,25.72
2018-06-01T06:37:41.399Z,25.81
2018-06-01T06:38:40.456Z,25.87
2018-06-01T06:39:40.816Z,25.96
2018-06-01T06:40:41.450Z,26.09
2018-06-01T06:42:04.261Z,26.21
2018-06-01T06:43:25.823Z,26.34
2018-06-01T06:44:26.678Z,26.38
2018-06-01T06:45:26.714Z,26.47
2018-06-01T06:46:26.078Z,26.53
2018-06-01T06:47:48.277Z,26.66
2018-06-01T06:48:47.996Z,26.78
2018-06-01T06:50:11.226Z,26.84
2018-06-01T06:51:11.006Z,26.83
2018-06-01T06:52:33.798Z,26.83
2018-06-01T06:54:16.173Z,26.71
2018-06-01T06:55:16.754Z,26.66
2018-06-01T06:56:40.356Z,26.59
2018-06-01T06:57:41.017Z,26.62
2018-06-01T06:58:41.239Z,26.75
2018-06-01T06:59:41.265Z,26.83
2018-06-01T07:00:40.331Z,26.78
2018-06-01T07:01:41.158Z,26.84
2018-06-01T07:02:40.765Z,26.89
2018-06-01T07:03:41.115Z,26.83
2018-06-01T07:04:41.057Z,26.65
2018-06-01T07:05:41.491Z,26.55
2018-06-01T07:06:41.152Z,26.56
2018-06-01T07:07:41.153Z,26.53
2018-06-01T07:08:39.974Z,26.65
2018-06-01T07:10:02.296Z,26.81
2018-06-01T07:11:03.203Z,26.75
2018-06-01T07:12:02.950Z,26.75
2018-06-01T07:13:04.256Z,26.73
2018-06-01T07:14:02.930Z,26.75
2018-06-01T07:15:04.334Z,26.81
2018-06-01T07:16:03.498Z,26.89
2018-06-01T07:17:04.680Z,26.95
2018-06-01T07:18:03.320Z,26.96
2018-06-01T07:19:31.407Z,26.90
2018-06-01T07:20:49.110Z,27.08
2018-06-01T07:22:11.602Z,27.20
2018-06-01T07:23:15.497Z,27.22
2018-06-01T07:24:34.422Z,27.22
2018-06-01T07:25:35.348Z,27.32
2018-06-01T07:26:34.721Z,27.36
2018-06-01T07:27:35.655Z,27.36
2018-06-01T07:28:57.101Z,27.32
2018-06-01T07:29:58.177Z,27.44
2018-06-01T07:30:57.345Z,27.60
2018-06-01T07:31:57.707Z,27.75
2018-06-01T07:32:58.083Z,27.82
2018-06-01T07:33:58.565Z,28.02
2018-06-01T07:34:57.563Z,28.07
2018-06-01T07:35:57.512Z,28.14
2018-06-01T07:36:57.399Z,28.11
2018-06-01T07:37:58.397Z,28.25
2018-06-01T07:38:57.371Z,28.48
2018-06-01T07:39:57.282Z,28.72
2018-06-01T07:40:57.516Z,28.88
2018-06-01T07:41:57.671Z,29.12
2018-06-01T07:43:20.181Z,29.49
2018-06-01T07:44:20.179Z,29.60
2018-06-01T07:45:20.957Z,29.63
2018-06-01T07:46:19.716Z,29.72
2018-06-01T07:47:19.578Z,29.88
2018-06-01T07:48:40.665Z,30.24
2018-06-01T07:49:42.166Z,30.50
2018-06-01T07:50:41.229Z,30.72
2018-06-01T07:51:41.523Z,30.80
2018-06-01T07:52:41.372Z,31.00
2018-06-01T07:54:02.752Z,30.97
2018-06-01T07:55:03.867Z,31.17
2018-06-01T07:56:03.637Z,31.34
2018-06-01T07:57:03.701Z,31.44
2018-06-01T07:58:27.475Z,31.76
2018-06-01T07:59:27.449Z,31.84
2018-06-01T08:00:27.976Z,31.87
2018-06-01T08:02:14.157Z,31.92
2018-06-01T08:03:15.223Z,32.07
2018-06-01T08:04:14.248Z,32.18
2018-06-01T08:05:14.469Z,32.22
2018-06-01T08:06:14.151Z,32.22
2018-06-01T08:07:15.082Z,32.29
2018-06-01T08:08:15.883Z,32.34
2018-06-01T08:09:15.450Z,32.38
2018-06-01T08:10:14.506Z,32.53
2018-06-01T08:11:36.125Z,32.68
2018-06-01T08:12:36.373Z,32.85
2018-06-01T08:13:36.373Z,32.89
2018-06-01T08:14:36.353Z,32.93
2018-06-01T08:15:36.461Z,32.87
2018-06-01T08:16:36.776Z,32.86
2018-06-01T08:17:37.000Z,33.01
2018-06-01T08:18:58.169Z,32.89
2018-06-01T08:19:58.269Z,32.86
2018-06-01T08:20:58.427Z,32.56
2018-06-01T08:21:58.725Z,32.04
2018-06-01T08:22:58.694Z,31.64
2018-06-01T08:23:58.662Z,31.42
2018-06-01T08:24:58.337Z,31.25
2018-06-01T08:25:58.165Z,30.92
2018-06-01T08:26:58.536Z,30.48
2018-06-01T08:27:58.518Z,30.28
2018-06-01T08:28:58.437Z,30.18
2018-06-01T08:29:58.619Z,30.13
2018-06-01T08:30:58.751Z,30.15
2018-06-01T08:31:58.732Z,30.02
2018-06-01T08:32:58.843Z,29.91
2018-06-01T08:33:57.918Z,29.73
2018-06-01T08:34:58.637Z,29.54
2018-06-01T08:35:58.329Z,29.31
2018-06-01T08:36:59.338Z,29.24
2018-06-01T08:37:58.305Z,29.14
2018-06-01T08:38:58.332Z,28.97
2018-06-01T08:39:58.127Z,29.01
2018-06-01T08:41:21.645Z,29.31
2018-06-01T08:42:23.345Z,29.72
2018-06-01T08:43:22.328Z,30.18
2018-06-01T08:44:44.118Z,30.57
2018-06-01T08:46:05.806Z,31.20
2018-06-01T08:47:06.823Z,31.15
2018-06-01T08:48:05.907Z,31.10
2018-06-01T08:49:06.316Z,30.83
2018-06-01T08:50:06.029Z,30.51
2018-06-01T08:51:05.896Z,30.09
2018-06-01T08:52:28.404Z,29.49
2018-06-01T08:53:29.257Z,29.38
2018-06-01T08:54:51.370Z,29.98
2018-06-01T08:55:52.449Z,30.34
2018-06-01T08:56:52.518Z,29.95
2018-06-01T08:57:51.426Z,29.97
2018-06-01T08:59:14.034Z,30.27
2018-06-01T09:00:15.135Z,30.55
2018-06-01T09:01:15.101Z,30.99
2018-06-01T09:02:14.143Z,31.39
2018-06-01T09:03:14.893Z,31.71
2018-06-01T09:04:14.894Z,31.76
2018-06-01T09:05:14.709Z,31.87
2018-06-01T09:06:36.557Z,31.87
2018-06-01T09:07:57.971Z,31.70
2018-06-01T09:08:59.585Z,31.34
2018-06-01T09:09:58.348Z,31.54
2018-06-01T09:10:58.355Z,31.64
2018-06-01T09:11:58.374Z,31.29
2018-06-01T09:12:58.660Z,31.22
2018-06-01T09:13:58.937Z,31.14
2018-06-01T09:15:00.172Z,30.90
2018-06-01T09:15:58.081Z,30.70
2018-06-01T09:16:57.921Z,30.73
2018-06-01T09:17:59.876Z,30.51
2018-06-01T09:19:01.065Z,30.21
2018-06-01T09:20:44.176Z,29.87
2018-06-01T09:21:45.432Z,29.61
2018-06-01T09:22:44.294Z,29.24
2018-06-01T09:24:06.022Z,28.88
2018-06-01T09:25:06.975Z,28.69
2018-06-01T09:26:06.027Z,28.69
2018-06-01T09:27:05.861Z,28.67
2018-06-01T09:28:07.156Z,28.62
2018-06-01T09:29:06.294Z,28.48
2018-06-01T09:30:06.493Z,28.41
2018-06-01T09:31:07.094Z,28.44
2018-06-01T09:32:05.999Z,28.45
2018-06-01T09:33:30.172Z,28.48
2018-06-01T09:34:31.094Z,28.69
2018-06-01T09:35:30.995Z,29.12
2018-06-01T09:36:31.601Z,29.45
2018-06-01T09:37:30.659Z,29.87
2018-06-01T09:38:30.413Z,30.06
2018-06-01T09:39:30.557Z,30.09
2018-06-01T09:40:30.309Z,29.93
2018-06-01T09:41:31.269Z,29.84
2018-06-01T09:42:52.711Z,29.51
2018-06-01T09:43:53.747Z,29.26
2018-06-01T09:45:15.373Z,28.91
2018-06-01T09:46:16.429Z,28.67
2018-06-01T09:47:38.110Z,28.64
2018-06-01T09:48:39.109Z,28.69
2018-06-01T09:50:02.733Z,28.67
2018-06-01T09:51:27.552Z,28.78
2018-06-01T09:52:27.703Z,28.75
2018-06-01T09:53:27.451Z,28.64
2018-06-01T09:54:27.765Z,28.56
2018-06-01T09:55:28.146Z,28.56
2018-06-01T09:56:27.380Z,28.45
2018-06-01T09:57:51.421Z,28.35
2018-06-01T09:59:14.586Z,28.22
2018-06-01T10:00:14.411Z,28.26
2018-06-01T10:01:15.438Z,28.25
2018-06-01T10:02:37.627Z,28.23
2018-06-01T10:03:37.542Z,28.29
2018-06-01T10:05:44.539Z,28.32
2018-06-01T10:06:45.662Z,28.35
2018-06-01T10:07:44.759Z,28.63
2018-06-01T10:08:45.959Z,29.04
2018-06-01T10:09:45.013Z,29.27
2018-06-01T10:10:45.017Z,29.39
2018-06-01T10:11:45.104Z,29.78
2018-06-01T10:12:56.019Z,30.21
2018-06-01T10:13:45.036Z,30.61
2018-06-01T10:14:45.227Z,30.75
2018-06-01T10:15:45.370Z,30.69
2018-06-01T10:16:45.392Z,30.57
2018-06-01T10:18:29.143Z,30.54
2018-06-01T10:19:29.119Z,30.69
2018-06-01T10:20:30.355Z,31.40
2018-06-01T10:21:30.124Z,32.11
2018-06-01T10:22:29.598Z,32.73
2018-06-01T10:23:30.083Z,33.32
2018-06-01T10:24:29.731Z,33.52
2018-06-01T10:25:29.865Z,33.77
2018-06-01T10:26:29.716Z,34.13
2018-06-01T10:27:29.464Z,34.45
2018-06-01T10:28:52.339Z,34.80
2018-06-01T10:29:51.901Z,34.88
2018-06-01T10:30:52.493Z,35.14
2018-06-01T10:31:52.030Z,35.55
2018-06-01T10:33:18.175Z,35.98
2018-06-01T10:34:20.672Z,36.02
2018-06-01T10:35:20.580Z,36.21
2018-06-01T10:36:17.512Z,36.23
2018-06-01T10:37:17.625Z,36.01
2018-06-01T10:38:18.787Z,36.02
2018-06-01T10:39:18.013Z,36.24
2018-06-01T10:40:16.933Z,36.49
2018-06-01T10:41:18.023Z,36.84
2018-06-01T10:42:17.044Z,37.21
2018-06-01T10:43:17.325Z,37.25
2018-06-01T10:44:17.563Z,36.77
2018-06-01T10:45:19.113Z,36.65
2018-06-01T10:46:17.161Z,36.42
2018-06-01T10:47:17.287Z,36.04
2018-06-01T10:48:19.534Z,35.68
2018-06-01T10:49:17.544Z,35.46
2018-06-01T10:50:18.664Z,35.18
2018-06-01T10:51:17.683Z,35.23
2018-06-01T10:52:17.934Z,35.07
2018-06-01T10:53:17.927Z,34.66
2018-06-01T10:54:19.345Z,34.29
2018-06-01T10:55:17.940Z,33.90
2018-06-01T10:57:04.020Z,34.05
2018-06-01T10:58:05.023Z,33.96
2018-06-01T10:59:04.617Z,34.01
2018-06-01T11:00:04.493Z,34.27
2018-06-01T11:01:04.846Z,34.73
2018-06-01T11:02:05.051Z,35.27
2018-06-01T11:03:27.971Z,36.08
2018-06-01T11:04:28.039Z,36.33
2018-06-01T11:05:28.660Z,36.12
2018-06-01T11:07:16.828Z,35.31
2018-06-01T11:08:18.615Z,34.89
2018-06-01T11:09:17.588Z,34.30
2018-06-01T11:10:17.666Z,34.16
2018-06-01T11:11:17.669Z,33.84
2018-06-01T11:12:17.555Z,33.67
2018-06-01T11:13:17.760Z,33.45
2018-06-01T11:14:17.738Z,33.19
2018-06-01T11:15:16.949Z,32.77
2018-06-01T11:16:17.056Z,32.53
2018-06-01T11:17:17.197Z,32.14
2018-06-01T11:18:17.998Z,31.96
2018-06-01T11:19:17.729Z,31.73
2018-06-01T11:20:16.943Z,31.56
2018-06-01T11:21:17.139Z,31.37
2018-06-01T11:22:17.406Z,31.14
2018-06-01T11:23:17.626Z,30.70
2018-06-01T11:24:19.240Z,30.47
2018-06-01T11:26:02.723Z,30.18
2018-06-01T11:27:03.654Z,29.98
2018-06-01T11:28:02.442Z,29.68
2018-06-01T11:29:03.507Z,29.56
2018-06-01T11:30:02.394Z,29.49
2018-06-01T11:31:03.211Z,29.42
2018-06-01T11:32:04.405Z,29.31
2018-06-01T11:33:05.328Z,28.98
2018-06-01T11:34:03.440Z,28.72
2018-06-01T11:35:03.359Z,28.44
2018-06-01T11:36:03.192Z,28.32
2018-06-01T11:37:02.933Z,28.25
2018-06-01T11:38:27.180Z,28.05
2018-06-01T11:39:27.332Z,27.98
2018-06-01T11:40:27.211Z,27.80
2018-06-01T11:41:27.039Z,27.67
2018-06-01T11:42:27.395Z,27.55
2018-06-01T11:43:49.156Z,27.26
2018-06-01T11:44:50.081Z,27.02
2018-06-01T11:45:49.845Z,26.84
2018-06-01T11:46:50.196Z,26.63
2018-06-01T11:47:50.068Z,26.44
2018-06-01T11:48:49.828Z,26.36
2018-06-01T11:49:49.642Z,26.26
2018-06-01T11:50:50.601Z,26.06
2018-06-01T11:52:11.774Z,25.81
2018-06-01T11:53:12.235Z,25.59
2018-06-01T11:54:12.335Z,25.41
2018-06-01T11:55:12.432Z,25.16
2018-06-01T11:56:35.642Z,24.88
2018-06-01T11:57:34.667Z,24.66
2018-06-01T11:58:58.937Z,24.36
2018-06-01T11:59:59.177Z,24.21
2018-06-01T12:01:00.085Z,24.11
2018-06-01T12:02:01.291Z,24.03
2018-06-01T12:03:00.379Z,23.93
2018-06-01T12:03:59.152Z,23.87
2018-06-01T12:04:59.088Z,23.77
2018-06-01T12:06:22.908Z,23.65
2018-06-01T12:07:23.903Z,23.54
2018-06-01T12:08:24.237Z,23.43
2018-06-01T12:09:23.601Z,23.27
2018-06-01T12:10:49.150Z,23.09
2018-06-01T12:11:48.057Z,23.02
2018-06-01T12:12:48.922Z,22.99
2018-06-01T12:13:48.749Z,23.00
2018-06-01T12:14:49.221Z,23.08
2018-06-01T12:15:48.377Z,23.13
2018-06-01T12:16:49.965Z,23.21
2018-06-01T12:17:48.095Z,23.27
2018-06-01T12:18:48.519Z,23.31
2018-06-01T12:19:48.576Z,23.37
2018-06-01T12:20:48.652Z,23.40
2018-06-01T12:22:12.849Z,23.50
2018-06-01T12:23:36.002Z,23.59
2018-06-01T12:24:36.927Z,23.66
2018-06-01T12:25:36.257Z,23.78
2018-06-01T12:26:36.449Z,23.91
2018-06-01T12:27:35.620Z,23.95
2018-06-01T12:28:41.423Z,24.01
2018-06-01T12:29:35.660Z,24.08
2018-06-01T12:30:36.464Z,24.05
2018-06-01T12:31:36.086Z,24.06
2018-06-01T12:32:36.188Z,24.20
2018-06-01T12:33:36.745Z,24.30
2018-06-01T12:34:36.480Z,24.36
2018-06-01T12:35:35.540Z,24.35
2018-06-01T12:36:35.669Z,24.47
2018-06-01T12:38:00.792Z,24.60
2018-06-01T12:38:59.280Z,24.74
2018-06-01T12:39:58.165Z,24.77
2018-06-01T12:40:58.348Z,24.84
2018-06-01T12:41:58.332Z,24.86
2018-06-01T12:42:58.250Z,25.04
2018-06-01T12:43:58.184Z,25.28
2018-06-01T12:44:59.227Z,25.38
2018-06-01T12:45:58.297Z,25.60
2018-06-01T12:46:59.322Z,25.87
2018-06-01T12:47:58.384Z,26.26
2018-06-01T12:48:58.427Z,26.56
2018-06-01T12:49:58.571Z,26.96
2018-06-01T12:51:01.402Z,27.39
2018-06-01T12:51:59.132Z,27.64
2018-06-01T12:53:42.047Z,27.86
2018-06-01T12:55:04.470Z,28.11
2018-06-01T12:56:05.995Z,28.26
2018-06-01T12:57:04.421Z,28.30
2018-06-01T12:58:05.042Z,28.52
2018-06-01T13:00:16.189Z,28.75
2018-06-01T13:02:01.810Z,29.34
2018-06-01T13:03:38.742Z,30.31
2018-06-01T13:04:08.227Z,30.66
2018-06-01T13:05:26.138Z,30.21
2018-06-01T13:06:25.992Z,30.51
2018-06-01T13:07:25.952Z,31.02
2018-06-01T13:08:48.929Z,31.15
2018-06-01T13:09:48.699Z,31.21
2018-06-01T13:11:33.248Z,31.42
2018-06-01T13:12:34.326Z,31.65
2018-06-01T13:13:34.291Z,31.54
2018-06-01T13:14:34.536Z,31.61
2018-06-01T13:15:34.834Z,31.77
2018-06-01T13:16:33.958Z,31.62
2018-06-01T13:17:33.753Z,31.46
2018-06-01T13:18:33.888Z,31.09
2018-06-01T13:19:55.814Z,31.18
2018-06-01T13:20:56.339Z,31.31
2018-06-01T13:21:56.346Z,31.27
2018-06-01T13:23:20.068Z,31.10
2018-06-01T13:24:21.175Z,31.03
2018-06-01T13:25:22.451Z,30.87
2018-06-01T13:26:20.702Z,30.78
2018-06-01T13:27:21.688Z,30.72
2018-06-01T13:28:20.402Z,30.53
2018-06-01T13:29:44.159Z,30.13
2018-06-01T13:30:45.130Z,29.66
2018-06-01T13:31:45.744Z,29.29
2018-06-01T13:32:44.731Z,29.10
2018-06-01T13:33:44.483Z,28.89
2018-06-01T13:34:45.219Z,28.64
2018-06-01T13:35:46.107Z,28.44
2018-06-01T13:36:45.304Z,28.39
2018-06-01T13:37:45.068Z,28.35
2018-06-01T13:38:45.506Z,28.26
2018-06-01T13:39:44.535Z,28.17
2018-06-01T13:40:46.180Z,28.04
2018-06-01T13:41:45.241Z,27.92
2018-06-01T13:42:48.169Z,28.08
2018-06-01T13:43:45.943Z,28.15
2018-06-01T13:44:45.090Z,28.30
2018-06-01T13:46:07.958Z,28.41
2018-06-01T13:47:06.907Z,28.41
2018-06-01T13:48:07.255Z,28.47
2018-06-01T13:49:06.881Z,28.62
2018-06-01T13:50:07.247Z,28.78
2018-06-01T13:51:31.952Z,28.91
2018-06-01T13:52:31.818Z,28.93
2018-06-01T13:53:32.162Z,28.94
2018-06-01T13:54:33.432Z,29.08
2018-06-01T13:55:35.014Z,29.24
2018-06-01T13:56:31.713Z,29.34
2018-06-01T13:57:31.518Z,29.59
2018-06-01T13:58:53.505Z,29.81
2018-06-01T13:59:54.583Z,29.94
2018-06-01T14:00:59.623Z,30.13
2018-06-01T14:01:53.527Z,30.39
2018-06-01T14:02:55.459Z,30.75
2018-06-01T14:03:54.800Z,30.90
2018-06-01T14:04:54.518Z,30.91
2018-06-01T14:06:17.278Z,31.07
2018-06-01T14:07:17.602Z,31.14
2018-06-01T14:08:18.256Z,31.21
2018-06-01T14:09:17.272Z,31.34
2018-06-01T14:10:17.565Z,31.52
2018-06-01T14:11:38.230Z,31.52
2018-06-01T14:13:00.835Z,31.81
2018-06-01T14:14:01.854Z,32.16
2018-06-01T14:15:01.630Z,32.26
2018-06-01T14:16:01.402Z,32.65
2018-06-01T14:17:01.578Z,32.56
2018-06-01T14:18:24.673Z,32.49
2018-06-01T14:19:24.530Z,32.52
2018-06-01T14:20:25.577Z,32.67
2018-06-01T14:21:24.627Z,33.04
2018-06-01T14:22:48.267Z,33.22
2018-06-01T14:23:49.058Z,33.49
2018-06-01T14:24:49.356Z,33.76
2018-06-01T14:25:50.541Z,33.74
2018-06-01T14:26:55.111Z,33.86
2018-06-01T14:27:48.917Z,34.03
2018-06-01T14:28:50.473Z,34.18
2018-06-01T14:29:49.079Z,33.80
2018-06-01T14:30:49.396Z,33.28
2018-06-01T14:32:11.484Z,32.55
2018-06-01T14:33:15.199Z,32.00
2018-06-01T14:34:14.166Z,31.87
2018-06-01T14:39:16.366Z,31.80
2018-06-01T14:40:13.647Z,31.66
2018-06-01T14:40:56.245Z,31.62
2018-06-01T14:41:54.322Z,31.94
2018-06-01T14:42:54.627Z,32.23
2018-06-01T14:43:53.559Z,32.56
2018-06-01T14:44:54.267Z,32.74
2018-06-01T14:45:54.486Z,32.93
2018-06-01T14:46:53.658Z,32.92
2018-06-01T14:47:53.738Z,33.08
2018-06-01T14:48:53.784Z,33.28
2018-06-01T14:49:54.616Z,33.61
2018-06-01T14:50:53.974Z,33.68
2018-06-01T14:52:16.312Z,33.81
2018-06-01T14:53:16.030Z,33.89
2018-06-01T14:54:15.717Z,33.94
2018-06-01T14:55:16.623Z,33.96
2018-06-01T14:56:16.941Z,34.02
2018-06-01T14:57:15.918Z,34.13
2018-06-01T14:58:15.813Z,34.33
2018-06-01T14:59:16.208Z,34.54
2018-06-01T15:00:16.134Z,34.64
2018-06-01T15:01:16.251Z,34.70
2018-06-01T15:02:16.291Z,34.86